Airfield :
LOGIN :

Register | Disclaimer

   EN    FR    IT 

 










Legend :    VFR   Marginal VFR   IFR   Intensive IFR   Very Intensive IFR
Visi :
Ceiling :
>= 8 km
>= 3000ft
5 to 8 km
1000 to 3000 ft
1500m to 5 km
500 to 1000 ft
800 to 1500m
200 to 500 ft
< 800m
< 200 ft
Symbols :   Thunderstorms  Fog  Heavy snow  Heavy precipitations  Wind > 20 kt
SIGMETs :     Misc.  Thunderstorms  Icing  Turbulence  Mountain Waves  Volcanic Ashes







- Airport Elevation : 158 ft
- IATA code : QAR


EHDL - Deelen Airbase

CURRENT METAR :
  • 241325Z AUTO 09006KT 360V130 9999 NCD 19/12 Q1023 BLU

EXPIRED METARs :
  • 241255Z AUTO 09006KT 020V160 9999 FEW110 19/12 Q1023 BLU
  • 241225Z AUTO 10007KT 020V190 9999 NCD 19/12 Q1023 BLU
  • 241155Z AUTO 07006KT 020V150 9999 NCD 19/13 Q1023 BLU
  • 241125Z AUTO 08005KT 020V160 9999 FEW380 18/12 Q1023 BLU
  • 241055Z AUTO 08005KT 010V150 9000 HZ NCD 18/13 Q1023 BLU

Expired Forecast.
No reported NOTAMs for that airfield.



MET'MAP, your aeronautical weather chart ! - Copyright ORBIFLY December 2007 - Disclaimer

ORBIFLY MET'MAP TEAM :

Programming & Development : Alexandra Zaïnal
Concept & Development : Baudouin d'Aumeries
Co-Development & Prog : Marc-Olivier Méhu
Technical & hardware support : Manuel Goepfert

Contact : metmap@orbifly.com




SOURCES & CREDITS :

   NOAA